Time;durP1;ratioP1;P1;durP2;ratioP2;P2;SDS_P1;SDS_P2;PMS_P1;PMS_P2;Temp;Humidity;BMP_temperature;BMP_pressure;BME280_temperature;BME280_humidity;BME280_pressure;Samples;Min_cycle;Max_cycle;Signal;HPM_P1;HPM_P2
2021/09/18 00:01:38;;;;;;;6.85;4.75;;;13.20;99.90;;;;;;4901160;29;20132;-78
2021/09/18 00:04:08;;;;;;;6.55;4.40;;;13.20;99.90;;;;;;4900624;29;20140;-80
2021/09/18 00:06:35;;;;;;;5.88;4.38;;;13.10;99.90;;;;;;4900395;29;20053;-81
2021/09/18 00:09:03;;;;;;;6.30;4.82;;;13.10;99.90;;;;;;4900541;29;20053;-78
2021/09/18 00:11:30;;;;;;;5.82;4.40;;;13.10;99.90;;;;;;4901318;29;20080;-80
2021/09/18 00:13:58;;;;;;;6.68;4.32;;;13.10;99.90;;;;;;4901021;29;22008;-80
2021/09/18 00:16:26;;;;;;;7.28;4.50;;;13.00;99.90;;;;;;4881990;29;20460;-79
2021/09/18 00:18:53;;;;;;;8.32;4.80;;;13.10;99.90;;;;;;4881965;29;20148;-78
2021/09/18 00:21:20;;;;;;;6.93;5.10;;;13.10;99.90;;;;;;4881588;29;20144;-79
2021/09/18 00:23:47;;;;;;;7.82;5.20;;;13.00;99.90;;;;;;4881712;29;20084;-79
2021/09/18 00:26:15;;;;;;;7.07;5.43;;;13.00;99.90;;;;;;4881971;29;20132;-78
2021/09/18 00:28:42;;;;;;;8.07;5.35;;;12.90;99.90;;;;;;4881867;29;20109;-79
2021/09/18 00:31:10;;;;;;;8.85;5.65;;;12.80;99.90;;;;;;4881972;29;20091;-80
2021/09/18 00:33:37;;;;;;;8.18;5.65;;;12.80;99.90;;;;;;4882025;29;20057;-78
2021/09/18 00:36:06;;;;;;;8.00;5.78;;;12.70;99.90;;;;;;4881155;29;20108;-79
2021/09/18 00:38:33;;;;;;;8.88;5.47;;;12.70;99.90;;;;;;4881593;29;20096;-78
2021/09/18 00:41:01;;;;;;;7.75;4.93;;;12.70;99.90;;;;;;4881412;29;20384;-79
2021/09/18 00:43:28;;;;;;;7.82;5.20;;;12.70;99.90;;;;;;4881715;29;20091;-79
2021/09/18 00:45:55;;;;;;;7.85;5.10;;;12.70;99.90;;;;;;4881627;29;20152;-77
2021/09/18 00:48:23;;;;;;;7.68;5.03;;;12.70;99.90;;;;;;4881265;29;20097;-78
2021/09/18 00:50:50;;;;;;;6.50;4.97;;;12.80;99.90;;;;;;4881336;29;20088;-79
2021/09/18 00:53:18;;;;;;;7.18;4.60;;;12.80;99.90;;;;;;4881402;29;20562;-78
2021/09/18 00:55:45;;;;;;;8.25;4.82;;;12.80;99.90;;;;;;4881493;29;20088;-78
2021/09/18 00:58:13;;;;;;;6.05;4.55;;;12.90;99.90;;;;;;4881240;29;20053;-78
2021/09/18 01:00:40;;;;;;;7.35;4.75;;;12.90;99.90;;;;;;4881487;29;20049;-78
2021/09/18 01:03:09;;;;;;;5.90;4.65;;;12.90;99.90;;;;;;4880690;29;20136;-78
2021/09/18 01:05:37;;;;;;;6.68;4.50;;;12.90;99.90;;;;;;4881461;29;20257;-79
2021/09/18 01:08:10;;;;;;;8.50;5.28;;;12.90;99.90;;;;;;4881635;29;20110;-79
2021/09/18 01:10:38;;;;;;;6.30;4.50;;;13.00;99.90;;;;;;4881761;29;20109;-77
2021/09/18 01:13:09;;;;;;;8.10;4.63;;;12.90;99.90;;;;;;4881561;29;20139;-78
2021/09/18 01:15:38;;;;;;;6.72;4.63;;;13.00;99.90;;;;;;4880476;29;20063;-78
2021/09/18 01:18:07;;;;;;;7.47;4.70;;;13.00;99.90;;;;;;4879878;29;20091;-78
2021/09/18 01:20:35;;;;;;;11.55;8.05;;;13.00;99.90;;;;;;4880229;29;20136;-78
2021/09/18 01:23:05;;;;;;;16.50;10.07;;;13.00;99.90;;;;;;4880527;29;20136;-79
2021/09/18 01:25:37;;;;;;;8.45;5.93;;;13.00;99.90;;;;;;4880802;29;20128;-79
2021/09/18 01:28:06;;;;;;;6.63;4.88;;;13.00;99.90;;;;;;4880782;29;20151;-79
2021/09/18 01:30:35;;;;;;;6.57;4.53;;;13.00;99.90;;;;;;4881019;29;20053;-79
2021/09/18 01:33:05;;;;;;;7.78;4.38;;;12.90;99.90;;;;;;4880074;29;20119;-79
2021/09/18 01:35:33;;;;;;;5.22;3.88;;;12.90;99.90;;;;;;4880462;29;20415;-78
2021/09/18 01:38:01;;;;;;;5.57;4.10;;;12.90;99.90;;;;;;4880828;29;20056;-79
2021/09/18 01:40:31;;;;;;;7.63;4.00;;;12.90;99.90;;;;;;4880611;29;20140;-76
2021/09/18 01:43:00;;;;;;;7.47;4.40;;;12.90;99.90;;;;;;4880463;29;20137;-78
2021/09/18 01:45:31;;;;;;;8.18;4.15;;;12.80;99.90;;;;;;4880190;29;20053;-78
2021/09/18 01:48:00;;;;;;;5.72;4.22;;;12.80;99.90;;;;;;4880084;29;20092;-79
2021/09/18 01:50:31;;;;;;;5.43;3.95;;;12.80;99.90;;;;;;4879891;29;20108;-78
2021/09/18 01:53:02;;;;;;;7.25;4.10;;;12.70;99.90;;;;;;4879665;29;20473;-78
2021/09/18 01:55:30;;;;;;;6.82;4.20;;;12.70;99.90;;;;;;4879890;29;20095;-77
2021/09/18 01:58:00;;;;;;;7.00;4.10;;;12.70;99.90;;;;;;4880166;29;20140;-79
2021/09/18 02:00:28;;;;;;;5.32;4.05;;;12.70;99.90;;;;;;4880506;29;20136;-79
2021/09/18 02:02:56;;;;;;;6.35;4.22;;;12.70;99.90;;;;;;4879837;29;20087;-79
2021/09/18 02:05:25;;;;;;;6.20;4.40;;;12.60;99.90;;;;;;4880263;29;20051;-79
2021/09/18 02:07:54;;;;;;;7.03;4.10;;;12.60;99.90;;;;;;4880133;29;20148;-79
2021/09/18 02:10:25;;;;;;;6.78;4.38;;;12.50;99.90;;;;;;4879751;29;20492;-79
2021/09/18 02:12:52;;;;;;;7.90;5.32;;;12.50;99.90;;;;;;4879950;29;20140;-78
2021/09/18 02:15:22;;;;;;;9.63;5.30;;;12.40;99.90;;;;;;4879856;29;20144;-78
2021/09/18 02:17:50;;;;;;;6.97;5.30;;;12.30;99.90;;;;;;4879434;29;20152;-78
2021/09/18 02:20:21;;;;;;;7.90;5.22;;;12.30;99.90;;;;;;4879890;29;20060;-79
2021/09/18 02:22:49;;;;;;;9.13;5.50;;;12.20;99.90;;;;;;4879933;29;20048;-78
2021/09/18 02:25:17;;;;;;;8.02;5.32;;;12.10;99.90;;;;;;4879815;29;20136;-79
2021/09/18 02:27:45;;;;;;;7.47;4.90;;;12.10;99.90;;;;;;4879168;29;20053;-79
2021/09/18 02:30:16;;;;;;;7.35;5.18;;;12.10;99.90;;;;;;4879509;29;20144;-79
2021/09/18 02:32:45;;;;;;;7.38;5.05;;;12.10;99.90;;;;;;4879275;29;20127;-79
2021/09/18 02:35:18;;;;;;;7.93;4.78;;;12.10;99.90;;;;;;4879450;29;20442;-79
2021/09/18 02:37:48;;;;;;;8.18;5.28;;;12.10;99.90;;;;;;4879670;29;20132;-78
2021/09/18 02:40:17;;;;;;;7.35;4.90;;;12.10;99.90;;;;;;4879309;29;20132;-79
2021/09/18 02:42:46;;;;;;;9.48;5.00;;;12.10;99.90;;;;;;4879435;29;20061;-79
2021/09/18 02:45:15;;;;;;;8.18;5.50;;;12.10;99.90;;;;;;4879248;29;20144;-78
2021/09/18 02:47:43;;;;;;;7.30;5.30;;;12.10;99.90;;;;;;4879441;29;20081;-79
2021/09/18 02:50:13;;;;;;;7.95;5.40;;;12.00;99.90;;;;;;4879283;29;20136;-79
2021/09/18 02:52:41;;;;;;;7.35;5.07;;;12.00;99.90;;;;;;4879314;29;20128;-79
2021/09/18 02:55:10;;;;;;;9.43;5.20;;;11.90;99.90;;;;;;4879311;29;20059;-79
2021/09/18 02:57:38;;;;;;;8.68;5.35;;;11.90;99.90;;;;;;4879057;29;20100;-79
2021/09/18 03:00:07;;;;;;;6.65;4.88;;;11.80;99.90;;;;;;4878980;29;20136;-78
2021/09/18 03:02:35;;;;;;;7.63;4.80;;;11.80;99.90;;;;;;4881669;29;20164;-78
2021/09/18 03:05:05;;;;;;;9.45;4.68;;;11.70;99.90;;;;;;4896050;29;20131;-78
2021/09/18 03:07:32;;;;;;;8.10;5.32;;;11.70;99.90;;;;;;4895115;29;20164;-79
2021/09/18 03:09:59;;;;;;;8.57;5.13;;;11.80;99.90;;;;;;4895445;29;20135;-78
2021/09/18 03:12:26;;;;;;;6.57;4.50;;;11.70;99.90;;;;;;4895804;29;20094;-79
2021/09/18 03:14:53;;;;;;;9.43;5.07;;;11.70;99.90;;;;;;4895407;29;20448;-78
2021/09/18 03:17:21;;;;;;;6.82;4.65;;;11.70;99.90;;;;;;4895235;29;20091;-78
2021/09/18 03:19:48;;;;;;;7.20;4.60;;;11.70;99.90;;;;;;4895257;29;20401;-79
2021/09/18 03:22:16;;;;;;;6.22;4.60;;;11.60;99.90;;;;;;4895517;29;20306;-78
2021/09/18 03:24:43;;;;;;;6.05;4.32;;;11.60;99.90;;;;;;4895292;29;20076;-78
2021/09/18 03:27:12;;;;;;;7.80;4.82;;;11.60;99.90;;;;;;4894936;29;20052;-79
2021/09/18 03:29:39;;;;;;;8.80;4.93;;;11.70;99.90;;;;;;4895001;29;20518;-78
2021/09/18 03:32:07;;;;;;;7.57;5.13;;;11.60;99.90;;;;;;4895299;29;20053;-78
2021/09/18 03:34:34;;;;;;;7.15;5.20;;;11.60;99.90;;;;;;4895216;29;20049;-78
2021/09/18 03:37:01;;;;;;;10.52;5.03;;;11.60;99.90;;;;;;4895261;29;20056;-79
2021/09/18 03:39:30;;;;;;;8.38;5.57;;;11.50;99.90;;;;;;4895591;29;20052;-79
2021/09/18 03:41:57;;;;;;;7.63;5.22;;;11.40;99.90;;;;;;4898592;29;20055;-79
2021/09/18 03:44:24;;;;;;;6.97;4.88;;;11.40;99.90;;;;;;4898665;29;20071;-78
2021/09/18 03:46:51;;;;;;;8.25;4.65;;;11.30;99.90;;;;;;4898639;29;20143;-78
2021/09/18 03:49:18;;;;;;;8.05;4.90;;;11.30;99.90;;;;;;4898385;29;20412;-78
2021/09/18 03:51:45;;;;;;;6.18;4.13;;;11.20;99.90;;;;;;4898852;29;20048;-78
2021/09/18 03:54:12;;;;;;;8.07;5.10;;;11.20;99.90;;;;;;4898249;29;20132;-79
2021/09/18 03:56:41;;;;;;;6.70;4.63;;;11.30;99.90;;;;;;4898172;29;20574;-79
2021/09/18 03:59:08;;;;;;;7.25;4.68;;;11.30;99.90;;;;;;4897021;29;20427;-79
2021/09/18 04:01:35;;;;;;;6.90;4.45;;;11.30;99.90;;;;;;4899392;29;20147;-79
2021/09/18 04:04:02;;;;;;;6.85;4.55;;;11.40;99.90;;;;;;4900571;29;20140;-78
2021/09/18 04:06:29;;;;;;;6.25;4.40;;;11.40;99.90;;;;;;4900352;29;20478;-80
2021/09/18 04:08:56;;;;;;;6.32;4.43;;;11.40;99.90;;;;;;4900407;29;20574;-78
2021/09/18 04:11:23;;;;;;;6.25;4.30;;;11.40;99.90;;;;;;4900566;29;20080;-79
2021/09/18 04:13:52;;;;;;;7.93;4.70;;;11.30;99.90;;;;;;4900446;29;20135;-80
2021/09/18 04:16:20;;;;;;;6.63;4.63;;;11.30;99.90;;;;;;4900177;29;20108;-79
2021/09/18 04:18:48;;;;;;;7.22;4.35;;;11.30;99.90;;;;;;4900268;29;20051;-79
2021/09/18 04:21:16;;;;;;;7.22;4.78;;;11.30;99.90;;;;;;4900216;29;20080;-79
2021/09/18 04:23:44;;;;;;;7.43;4.80;;;11.20;99.90;;;;;;4900489;29;20048;-80
2021/09/18 04:26:11;;;;;;;6.90;4.43;;;11.30;99.90;;;;;;4900014;29;20135;-80
2021/09/18 04:28:38;;;;;;;8.65;5.00;;;11.30;99.90;;;;;;4900178;29;20481;-78
2021/09/18 04:31:07;;;;;;;7.20;5.25;;;11.30;99.90;;;;;;4900015;29;20059;-78
2021/09/18 04:33:34;;;;;;;8.43;5.30;;;11.30;99.90;;;;;;4900116;29;20080;-78
2021/09/18 04:36:01;;;;;;;10.20;4.95;;;11.40;99.90;;;;;;4900065;29;20139;-78
2021/09/18 04:38:28;;;;;;;7.70;4.88;;;11.40;99.90;;;;;;4900088;29;20140;-79
2021/09/18 04:40:55;;;;;;;6.72;4.80;;;11.40;99.90;;;;;;4900074;29;20076;-78
2021/09/18 04:43:23;;;;;;;5.78;4.50;;;11.40;99.90;;;;;;4899697;29;20079;-79
2021/09/18 04:45:51;;;;;;;6.47;4.70;;;11.50;99.90;;;;;;4899632;29;20128;-78
2021/09/18 04:48:22;;;;;;;7.78;4.32;;;11.50;99.90;;;;;;4899522;29;20048;-78
2021/09/18 04:50:49;;;;;;;7.03;4.32;;;11.40;99.90;;;;;;4899275;29;20087;-80
2021/09/18 04:53:16;;;;;;;7.32;4.18;;;11.40;99.90;;;;;;4899724;29;20473;-78
2021/09/18 04:55:44;;;;;;;7.35;3.85;;;11.40;99.90;;;;;;4899587;29;20135;-78
2021/09/18 04:58:11;;;;;;;6.47;4.32;;;11.40;99.90;;;;;;4899328;29;20072;-79
2021/09/18 05:00:39;;;;;;;5.93;4.45;;;11.30;99.90;;;;;;4899241;29;20487;-79
2021/09/18 05:03:06;;;;;;;6.30;4.25;;;11.30;99.90;;;;;;4899578;29;20131;-80
2021/09/18 05:05:35;;;;;;;6.63;4.40;;;11.30;99.90;;;;;;4899501;29;20064;-79
2021/09/18 05:08:02;;;;;;;7.28;4.55;;;11.20;99.90;;;;;;4899297;29;20056;-78
2021/09/18 05:10:29;;;;;;;6.53;4.50;;;11.20;99.90;;;;;;4901490;29;20116;-79
2021/09/18 05:12:56;;;;;;;7.30;4.65;;;11.20;99.90;;;;;;4899692;29;20533;-78
2021/09/18 05:15:23;;;;;;;6.03;4.15;;;11.20;99.90;;;;;;4898870;29;20088;-80
2021/09/18 05:17:50;;;;;;;6.10;4.30;;;11.10;99.90;;;;;;4898897;29;20143;-78
2021/09/18 05:20:17;;;;;;;6.30;4.68;;;11.00;99.90;;;;;;4899130;29;20128;-79
2021/09/18 05:22:46;;;;;;;6.22;4.15;;;11.00;99.90;;;;;;4899101;29;20139;-79
2021/09/18 05:25:13;;;;;;;8.48;4.32;;;11.00;99.90;;;;;;4898831;29;20055;-79
2021/09/18 05:27:40;;;;;;;6.38;4.20;;;10.90;99.90;;;;;;4898837;29;20139;-80
2021/09/18 05:30:09;;;;;;;8.25;4.10;;;11.00;99.90;;;;;;4899095;29;20086;-79
2021/09/18 05:32:37;;;;;;;5.85;4.20;;;11.00;99.90;;;;;;4898812;29;20058;-78
2021/09/18 05:35:06;;;;;;;5.82;3.95;;;11.00;99.90;;;;;;4898831;29;20088;-79
2021/09/18 05:37:33;;;;;;;5.55;3.92;;;11.00;99.90;;;;;;4898713;29;20135;-79
2021/09/18 05:40:01;;;;;;;5.90;3.63;;;11.00;99.90;;;;;;4898757;29;20076;-79
2021/09/18 05:42:29;;;;;;;7.15;4.05;;;11.10;99.90;;;;;;4898526;29;20135;-78
2021/09/18 05:44:56;;;;;;;5.97;3.75;;;11.00;99.90;;;;;;4898687;29;20064;-79
2021/09/18 05:47:23;;;;;;;6.20;4.25;;;11.10;99.90;;;;;;4898485;29;20148;-79
2021/09/18 05:49:50;;;;;;;5.32;3.75;;;11.10;99.90;;;;;;4898304;29;20132;-79
2021/09/18 05:52:17;;;;;;;8.00;4.30;;;11.10;99.90;;;;;;4898332;29;20605;-79
2021/09/18 05:54:44;;;;;;;8.38;4.35;;;11.10;99.90;;;;;;4898343;29;20135;-78
2021/09/18 05:57:13;;;;;;;6.32;3.85;;;11.10;99.90;;;;;;4898244;29;20056;-78
2021/09/18 05:59:40;;;;;;;6.85;4.20;;;11.10;99.90;;;;;;4898488;29;20079;-78
2021/09/18 06:02:07;;;;;;;6.72;4.30;;;11.00;99.90;;;;;;4897946;29;20150;-78
2021/09/18 06:04:34;;;;;;;5.53;3.83;;;11.10;99.90;;;;;;4898248;29;20136;-79
2021/09/18 06:07:01;;;;;;;6.20;4.30;;;11.10;99.90;;;;;;4898083;29;20103;-79
2021/09/18 06:09:28;;;;;;;7.38;4.57;;;11.20;99.90;;;;;;4898139;29;20135;-80
2021/09/18 06:11:55;;;;;;;8.00;4.75;;;11.20;99.90;;;;;;4898057;29;20135;-79
2021/09/18 06:14:24;;;;;;;6.43;4.70;;;11.20;99.90;;;;;;4898201;29;20075;-79
2021/09/18 06:16:51;;;;;;;8.35;5.43;;;11.20;99.90;;;;;;4897846;29;20056;-79
2021/09/18 06:19:19;;;;;;;9.23;5.28;;;11.20;99.90;;;;;;4897926;29;20546;-79
2021/09/18 06:21:47;;;;;;;6.25;4.60;;;11.20;99.90;;;;;;4897866;29;20147;-79
2021/09/18 06:24:14;;;;;;;6.85;4.70;;;11.20;99.90;;;;;;4897952;29;20139;-79
2021/09/18 06:26:42;;;;;;;6.85;4.50;;;11.20;99.90;;;;;;4898077;29;20144;-79
2021/09/18 06:29:10;;;;;;;7.70;4.82;;;11.20;99.90;;;;;;4897984;29;20139;-79
2021/09/18 06:31:38;;;;;;;6.35;4.55;;;11.20;99.90;;;;;;4897953;29;20143;-79
2021/09/18 06:34:06;;;;;;;7.38;5.00;;;11.20;99.90;;;;;;4897826;29;20063;-80
2021/09/18 06:36:33;;;;;;;6.40;4.57;;;11.30;99.90;;;;;;4897585;29;20143;-80
2021/09/18 06:39:00;;;;;;;6.88;4.50;;;11.40;99.90;;;;;;4897864;29;20143;-78
2021/09/18 06:41:27;;;;;;;7.00;4.78;;;11.40;99.90;;;;;;4897967;29;20139;-80
2021/09/18 06:43:54;;;;;;;5.82;4.40;;;11.50;99.90;;;;;;4897784;29;20091;-79
2021/09/18 06:46:22;;;;;;;7.55;4.72;;;11.60;99.90;;;;;;4897822;29;20135;-80
2021/09/18 06:48:50;;;;;;;8.13;5.00;;;11.70;99.90;;;;;;4897684;29;20091;-79
2021/09/18 06:51:18;;;;;;;7.05;5.07;;;11.70;99.90;;;;;;4897692;29;20095;-79
2021/09/18 06:53:45;;;;;;;6.63;4.50;;;11.80;99.90;;;;;;4897617;29;20136;-78
2021/09/18 06:56:12;;;;;;;7.40;5.10;;;11.80;99.90;;;;;;4901663;29;20140;-77
2021/09/18 06:58:39;;;;;;;8.55;5.18;;;11.90;99.90;;;;;;4897699;29;20140;-78
2021/09/18 07:01:06;;;;;;;8.30;5.68;;;12.00;99.90;;;;;;4897778;29;20131;-78
2021/09/18 07:03:34;;;;;;;9.10;6.25;;;12.10;99.90;;;;;;4897510;29;20135;-78
2021/09/18 07:06:03;;;;;;;9.02;5.70;;;12.10;99.90;;;;;;4897572;29;20392;-77
2021/09/18 07:08:30;;;;;;;8.73;5.80;;;12.10;99.90;;;;;;4897757;29;20556;-77
2021/09/18 07:10:57;;;;;;;9.35;6.25;;;12.20;99.90;;;;;;4897832;29;20088;-78
2021/09/18 07:13:24;;;;;;;9.50;6.25;;;12.20;99.90;;;;;;4897503;29;20132;-78
2021/09/18 07:15:52;;;;;;;9.32;6.32;;;12.20;99.90;;;;;;4899914;29;20135;-79
2021/09/18 07:18:20;;;;;;;8.70;6.30;;;12.30;99.90;;;;;;4901539;29;20087;-79
2021/09/18 07:20:47;;;;;;;9.38;6.90;;;12.30;99.90;;;;;;4901208;29;20049;-78
2021/09/18 07:23:15;;;;;;;9.10;6.45;;;12.40;99.90;;;;;;4901143;29;20140;-79
2021/09/18 07:25:43;;;;;;;9.35;6.50;;;12.40;99.90;;;;;;4901058;29;20466;-78
2021/09/18 07:28:10;;;;;;;9.23;6.95;;;12.50;99.90;;;;;;4901082;29;20127;-78
2021/09/18 07:30:37;;;;;;;9.18;6.35;;;12.60;99.90;;;;;;4900841;29;20135;-80
2021/09/18 07:33:04;;;;;;;9.77;6.75;;;12.60;99.90;;;;;;4900660;29;20139;-78
2021/09/18 07:35:31;;;;;;;9.13;6.47;;;12.70;99.90;;;;;;4900888;29;20090;-79
2021/09/18 07:38:03;;;;;;;9.45;6.93;;;12.70;99.90;;;;;;4900760;29;20509;-79
2021/09/18 07:40:32;;;;;;;9.77;7.00;;;12.80;99.90;;;;;;4901001;29;20396;-79
2021/09/18 07:43:00;;;;;;;8.45;5.78;;;12.90;99.90;;;;;;4901266;29;20139;-80
2021/09/18 07:45:27;;;;;;;9.93;6.57;;;12.90;99.90;;;;;;4900579;29;20140;-78
2021/09/18 07:47:54;;;;;;;8.45;5.93;;;12.90;99.90;;;;;;4900537;29;20148;-79
2021/09/18 07:50:22;;;;;;;8.73;5.97;;;13.00;99.90;;;;;;4900896;29;20509;-79
2021/09/18 07:52:49;;;;;;;8.65;6.20;;;13.10;99.90;;;;;;4900671;29;20139;-79
2021/09/18 07:55:16;;;;;;;9.70;6.43;;;13.10;99.90;;;;;;4900478;29;20045;-80
2021/09/18 07:57:44;;;;;;;8.85;5.90;;;13.20;99.90;;;;;;4900372;29;20139;-79
2021/09/18 08:00:12;;;;;;;8.27;6.60;;;13.20;99.90;;;;;;4900416;29;20139;-79
2021/09/18 08:02:39;;;;;;;8.77;6.07;;;13.30;99.90;;;;;;4900526;29;20131;-78
2021/09/18 08:05:08;;;;;;;8.23;6.00;;;13.40;99.90;;;;;;4900582;29;20139;-80
2021/09/18 08:07:38;;;;;;;8.57;5.97;;;13.50;99.90;;;;;;4901770;29;20049;-78
2021/09/18 08:10:08;;;;;;;7.88;5.60;;;13.60;99.90;;;;;;4903359;29;20055;-78
2021/09/18 08:12:35;;;;;;;8.80;6.13;;;13.60;99.90;;;;;;4900886;29;20052;-77
2021/09/18 08:15:05;;;;;;;8.30;5.60;;;13.70;99.90;;;;;;4900270;29;20487;-78
2021/09/18 08:17:33;;;;;;;7.47;5.30;;;13.80;99.90;;;;;;4900064;29;20124;-78
2021/09/18 08:20:00;;;;;;;8.80;6.00;;;13.90;99.90;;;;;;4900153;29;20084;-78
2021/09/18 08:22:27;;;;;;;8.30;5.75;;;13.90;99.90;;;;;;4900151;29;20087;-77
2021/09/18 08:24:55;;;;;;;8.38;6.32;;;14.00;99.90;;;;;;4899903;29;20144;-78
2021/09/18 08:27:22;;;;;;;8.52;6.38;;;14.10;99.90;;;;;;4899678;29;20398;-78
2021/09/18 08:29:49;;;;;;;8.90;6.43;;;14.10;99.90;;;;;;4900150;29;20049;-79
2021/09/18 08:32:18;;;;;;;8.52;5.53;;;14.10;99.90;;;;;;4899990;29;20123;-78
2021/09/18 08:34:45;;;;;;;7.40;5.38;;;14.20;99.90;;;;;;4899736;29;20140;-79
2021/09/18 08:37:12;;;;;;;10.40;6.88;;;14.30;99.90;;;;;;4899633;29;20053;-78
2021/09/18 08:39:39;;;;;;;9.45;6.60;;;14.30;99.90;;;;;;4902273;29;20147;-78
2021/09/18 08:42:09;;;;;;;11.32;7.43;;;14.40;99.90;;;;;;4902459;29;20143;-78
2021/09/18 08:44:37;;;;;;;10.20;6.82;;;14.40;99.90;;;;;;4899952;29;20083;-78
2021/09/18 08:47:04;;;;;;;8.65;5.45;;;14.40;99.90;;;;;;4899507;29;20139;-78
2021/09/18 08:49:36;;;;;;;8.77;5.40;;;14.50;99.90;;;;;;4899576;29;20052;-79
2021/09/18 08:52:06;;;;;;;8.10;5.63;;;14.50;99.90;;;;;;4899496;29;20510;-78
2021/09/18 08:54:38;;;;;;;7.68;5.40;;;14.60;99.90;;;;;;4899678;29;20074;-78
2021/09/18 08:57:05;;;;;;;6.80;5.18;;;14.60;99.90;;;;;;4899551;29;20143;-78
2021/09/18 08:59:37;;;;;;;7.05;5.00;;;14.70;99.90;;;;;;4899659;29;20045;-78
2021/09/18 09:02:16;;;;;;;6.47;4.97;;;14.80;99.90;;;;;;4899366;29;20053;-78
2021/09/18 09:04:46;;;;;;;6.75;4.95;;;14.80;99.90;;;;;;4899270;29;20055;-79
2021/09/18 09:07:16;;;;;;;7.20;5.25;;;14.90;99.90;;;;;;4899359;29;20143;-78
2021/09/18 09:09:58;;;;;;;6.88;4.72;;;15.00;99.90;;;;;;4899274;29;20140;-78
2021/09/18 09:12:31;;;;;;;7.30;4.65;;;15.00;99.90;;;;;;4899155;29;20600;-78
2021/09/18 09:15:00;;;;;;;7.85;5.88;;;15.10;99.90;;;;;;4899251;29;20059;-79
2021/09/18 09:17:31;;;;;;;8.18;5.88;;;15.20;99.90;;;;;;4898815;29;20148;-78
2021/09/18 09:20:00;;;;;;;9.30;5.40;;;15.20;99.90;;;;;;4899048;29;20144;-78
2021/09/18 09:22:42;;;;;;;6.85;4.80;;;15.30;99.90;;;;;;4898930;29;20483;-79
2021/09/18 09:25:31;;;;;;;7.30;5.22;;;15.40;99.90;;;;;;4898669;29;20048;-79
2021/09/18 09:28:00;;;;;;;7.30;5.20;;;15.40;99.90;;;;;;4899041;29;20135;-78
2021/09/18 09:30:31;;;;;;;6.35;4.72;;;15.50;99.90;;;;;;4898909;29;20051;-78
2021/09/18 09:33:12;;;;;;;7.05;4.90;;;15.50;99.90;;;;;;4898942;29;20131;-79
2021/09/18 09:35:44;;;;;;;7.13;5.18;;;15.60;99.90;;;;;;4898587;29;20554;-80
2021/09/18 09:38:11;;;;;;;6.47;4.50;;;15.70;99.90;;;;;;4897737;29;20573;-79
2021/09/18 09:40:41;;;;;;;6.70;4.47;;;15.70;99.90;;;;;;4898762;29;20155;-78
2021/09/18 09:43:12;;;;;;;5.65;3.80;;;15.80;99.90;;;;;;4898612;29;20055;-78
2021/09/18 09:45:41;;;;;;;5.10;3.50;;;15.90;99.90;;;;;;4898560;29;20087;-78
2021/09/18 09:48:11;;;;;;;5.00;3.35;;;16.00;99.90;;;;;;4898364;29;20135;-79
2021/09/18 09:50:42;;;;;;;4.80;3.20;;;16.10;99.90;;;;;;4898613;29;20465;-78
2021/09/18 09:53:25;;;;;;;4.78;3.22;;;16.10;99.90;;;;;;4898862;29;20132;-79
2021/09/18 09:55:52;;;;;;;5.82;3.75;;;16.30;99.90;;;;;;4898388;29;20058;-80
2021/09/18 09:58:20;;;;;;;5.32;3.35;;;16.30;99.90;;;;;;4898261;29;20503;-78
2021/09/18 10:00:51;;;;;;;4.68;2.80;;;16.40;99.90;;;;;;4898408;29;20055;-78
2021/09/18 10:03:22;;;;;;;4.50;2.88;;;16.50;99.80;;;;;;4898721;29;20060;-79
2021/09/18 10:05:52;;;;;;;3.85;2.40;;;16.50;99.20;;;;;;4898492;29;20052;-78
2021/09/18 10:08:23;;;;;;;4.00;2.40;;;16.60;99.00;;;;;;4898308;29;20139;-79
2021/09/18 10:10:52;;;;;;;3.80;2.10;;;16.70;98.80;;;;;;4898262;29;20139;-78
2021/09/18 10:13:23;;;;;;;3.92;2.60;;;16.80;98.70;;;;;;4897986;29;20088;-78
2021/09/18 10:15:51;;;;;;;4.97;3.13;;;16.80;98.50;;;;;;4897834;29;20562;-80
2021/09/18 10:18:19;;;;;;;3.95;2.53;;;16.90;98.20;;;;;;4897177;29;20055;-79
2021/09/18 10:23:32;;;;;;;4.30;2.15;;;17.10;98.00;;;;;;4897849;29;20059;-79
2021/09/18 10:26:01;;;;;;;3.60;2.20;;;17.20;97.70;;;;;;4901902;29;20465;-78
2021/09/18 10:28:30;;;;;;;4.05;2.38;;;17.20;97.70;;;;;;4898438;29;20080;-79
2021/09/18 10:30:59;;;;;;;3.80;2.30;;;17.30;97.40;;;;;;4898187;29;20132;-78
2021/09/18 10:33:36;;;;;;;3.85;2.28;;;17.40;97.30;;;;;;4897943;29;20059;-78
2021/09/18 10:36:09;;;;;;;3.63;2.05;;;17.40;97.20;;;;;;4897728;29;20227;-78
2021/09/18 10:38:40;;;;;;;3.38;2.00;;;17.50;97.20;;;;;;4897903;29;20059;-79
2021/09/18 10:41:11;;;;;;;3.45;2.08;;;17.60;97.20;;;;;;4897723;29;20143;-79
2021/09/18 10:43:41;;;;;;;4.05;2.42;;;17.60;96.80;;;;;;4897961;29;20277;-79
2021/09/18 10:46:10;;;;;;;4.18;2.33;;;17.70;96.30;;;;;;4898004;29;20147;-79
2021/09/18 10:48:47;;;;;;;3.30;2.00;;;17.80;96.30;;;;;;4898297;29;20139;-78
2021/09/18 10:51:38;;;;;;;3.55;1.90;;;17.80;96.50;;;;;;4901758;29;20423;-78
2021/09/18 10:54:10;;;;;;;3.20;1.90;;;17.90;96.60;;;;;;4901842;29;20135;-77
2021/09/18 10:57:05;;;;;;;4.88;2.67;;;18.00;96.40;;;;;;4901591;29;20052;-78
2021/09/18 10:59:49;;;;;;;3.50;2.20;;;18.00;95.80;;;;;;4901881;29;20139;-78
2021/09/18 11:02:45;;;;;;;4.05;2.60;;;18.10;95.50;;;;;;4901800;29;20053;-78
2021/09/18 11:05:44;;;;;;;4.13;2.70;;;18.10;95.00;;;;;;4901342;29;20049;-78
2021/09/18 11:08:24;;;;;;;3.70;2.40;;;18.10;95.00;;;;;;4901366;29;20495;-78
2021/09/18 11:10:56;;;;;;;3.90;2.20;;;18.30;95.30;;;;;;4901841;29;20133;-80
2021/09/18 11:13:25;;;;;;;4.30;2.60;;;18.30;95.70;;;;;;4901059;29;20076;-77
2021/09/18 11:15:56;;;;;;;4.45;2.63;;;18.40;95.30;;;;;;4901078;29;20139;-79
2021/09/18 11:18:39;;;;;;;5.38;2.90;;;18.40;95.00;;;;;;4901094;29;20052;-79
2021/09/18 11:21:12;;;;;;;4.40;2.13;;;18.50;94.30;;;;;;4901239;29;20044;-79
2021/09/18 11:23:42;;;;;;;4.35;2.30;;;18.50;94.30;;;;;;4901487;29;20133;-79
2021/09/18 11:26:57;;;;;;;4.13;1.95;;;18.60;94.40;;;;;;4901271;29;20068;-79
2021/09/18 11:29:34;;;;;;;3.60;2.30;;;18.70;94.60;;;;;;4901260;29;20063;-78
2021/09/18 11:32:10;;;;;;;4.00;2.28;;;18.80;94.20;;;;;;4900999;29;20143;-78
2021/09/18 11:34:47;;;;;;;3.70;2.08;;;18.90;93.80;;;;;;4901134;29;20049;-79
2021/09/18 11:37:24;;;;;;;3.78;2.22;;;19.00;93.40;;;;;;4901117;29;20060;-78
2021/09/18 11:40:00;;;;;;;3.63;2.00;;;19.00;93.50;;;;;;4901074;29;20045;-78
2021/09/18 11:42:33;;;;;;;3.35;1.92;;;19.10;93.10;;;;;;4899635;29;20049;-79
2021/09/18 11:45:06;;;;;;;3.38;2.00;;;19.30;92.90;;;;;;4900810;29;20481;-79
2021/09/18 11:47:36;;;;;;;3.42;1.90;;;19.40;92.50;;;;;;4900697;29;20579;-79
2021/09/18 11:50:22;;;;;;;4.07;2.05;;;19.60;92.90;;;;;;4900881;29;20045;-78
2021/09/18 11:52:50;;;;;;;3.25;1.73;;;19.70;93.60;;;;;;4900752;29;20127;-79
2021/09/18 11:55:37;;;;;;;3.40;1.80;;;20.00;97.30;;;;;;4901113;29;20140;-79
2021/09/18 11:58:10;;;;;;;3.05;1.73;;;20.00;98.10;;;;;;4900570;29;20140;-79
2021/09/18 12:00:43;;;;;;;3.30;1.95;;;;;;;;;;4899790;29;20045;-78
2021/09/18 12:03:11;;;;;;;3.13;1.92;;;;;;;;;;4901004;29;20055;-78
2021/09/18 12:05:41;;;;;;;4.18;1.80;;;;;;;;;;4900411;29;20495;-78
2021/09/18 12:08:10;;;;;;;3.97;1.80;;;;;;;;;;4900883;29;20152;-77
2021/09/18 12:10:37;;;;;;;3.10;1.65;;;;;;;;;;4904195;29;20490;-79
2021/09/18 12:13:09;;;;;;;3.08;1.55;;;;;;;;;;4900785;29;20060;-77
2021/09/18 12:15:39;;;;;;;3.33;1.50;;;;;;;;;;4900559;29;20408;-79
2021/09/18 12:18:08;;;;;;;3.03;1.63;;;;;;;;;;4900421;29;20052;-78
2021/09/18 12:20:37;;;;;;;3.33;1.73;;;21.00;99.90;;;;;;4903070;29;20052;-80
2021/09/18 12:23:05;;;;;;;3.00;1.75;;;21.30;99.90;;;;;;4900183;29;20127;-78
2021/09/18 12:25:34;;;;;;;3.20;1.58;;;21.30;84.40;;;;;;4900219;29;20088;-80
2021/09/18 12:28:07;;;;;;;3.35;1.70;;;21.60;95.10;;;;;;4900176;29;20237;-79
2021/09/18 12:30:40;;;;;;;2.90;1.48;;;21.70;93.30;;;;;;4900193;29;20139;-79
2021/09/18 12:33:10;;;;;;;2.55;1.40;;;21.80;78.80;;;;;;4900247;29;20060;-78
2021/09/18 12:35:40;;;;;;;2.97;1.60;;;21.80;78.00;;;;;;4900156;29;20128;-78
2021/09/18 12:38:08;;;;;;;3.25;1.55;;;21.90;73.40;;;;;;4900112;29;20045;-79
2021/09/18 12:40:46;;;;;;;3.13;1.40;;;22.10;73.00;;;;;;4900020;29;20578;-78
2021/09/18 12:43:19;;;;;;;3.22;1.90;;;22.20;73.60;;;;;;4900609;29;20059;-78
2021/09/18 12:45:48;;;;;;;2.60;1.60;;;22.30;70.00;;;;;;4900221;29;20135;-80
2021/09/18 12:48:23;;;;;;;3.45;1.80;;;22.40;71.30;;;;;;4899605;29;20056;-78
2021/09/18 12:50:55;;;;;;;2.60;1.60;;;22.50;71.50;;;;;;4899731;29;20087;-79
2021/09/18 12:53:25;;;;;;;3.10;1.70;;;22.70;71.50;;;;;;4899738;29;20131;-78
2021/09/18 12:56:17;;;;;;;2.63;1.40;;;22.90;70.10;;;;;;4899758;29;20156;-78
2021/09/18 12:58:48;;;;;;;2.70;1.53;;;22.90;82.90;;;;;;4902104;29;20056;-77
2021/09/18 13:01:18;;;;;;;2.22;1.13;;;23.20;79.20;;;;;;4900852;29;20127;-79
2021/09/18 13:03:59;;;;;;;2.75;1.50;;;23.40;72.00;;;;;;4900190;29;20140;-77